KGEZ

Shelbyville Municipal Airport

Shelbyville, Indiana, USA
METAR KGEZ 231613Z AUTO 27014G19KT 9SM BKN006 OVC010 14/13 A3020 RMK AO2 RAE05 CIG 003V008 P0001 T01440128
Observed Flight Rules
Feb-23 @ 16:13 UTC (19 minutes ago) Instrument Flight Rules
Wind Visibility Clouds
270° at 14 knots
 Gusting to 19 knots
9 miles
  • Broken at 600' AGL
  • Overcast at 1,000' AGL
Temperatures Readings Precipitation
Current 14°C / 57°F
Dewpoint 13°C / 55°F
Humidity 94%
Altimeter 30.2" Hg
Pressure 1023 hPa
Elevation 245
Current Rain 0.01
METAR KGEZ 231613Z AUTO 27014G19KT 9SM BKN006 OVC010 14/13 A3020 RMK AO2 RAE05 CIG 003V008 P0001 T01440128
Observed Flight Rules
Feb-23 @ 16:13 UTC
(19 minutes ago)
IFR
Wind Visibility
270° at 14 knots
 Gusting to 19 knots
9 miles
Clouds
  • Broken at 600' AGL
  • Overcast at 1,000' AGL
Temperature Dewpoint
14°C / 57°F 13°C / 55°F
Humidity Altimeter Pressure
94% 30.2" Hg 1023 hPa
Current Rain
0.01